Wrigley, KY (41477)

3:04 AM EST on December 20, 2014 (GMT -0500)
Green | Change Station
CLOSE
Current Station
Personal Weather Station
Location: Olive Hill, KY
Elevation: 883 ft
Nearby Weather Stations

Elev 883 ft 38.19 °N, 83.08 °W | Updated 5 minutes ago

Mostly Cloudy
Mostly Cloudy
25.9 °F
Feels Like 26 °F
N
0.0
Wind Variable Wind from North
Gusts 0.0 mph

Today
High -- | Low -- °F
--% Chance of Precip.
Yesterday
High -- | Low -- °F
Precip. -- in
7:45 AM 5:16 PM
Waning Crescent, 4% visible
Pressure 30.22 in
Visibility 10.0 miles
Clouds Mostly Cloudy 10000 ft
Windchill 26 °F
Dew Point 12 °F
Humidity 56%
Rainfall -999.00 in
Snow Depth Not available.
UV 0 out of 12
Pollen .10 out of 12
Air Quality Not available.
Flu Activity Not available.
METAR KJKL 200753Z AUTO VRB04KT 10SM BKN100 M03/M06 A3019 RMK AO2 SLP234 T10281061

More Conditions Fewer Conditions

Pressure 30.22 in
Visibility 10.0 miles
Clouds Mostly Cloudy 10000 ft
Windchill 26 °F
Dew Point 12 °F
Humidity 56%
Rainfall -999.00 in
Snow Depth Not available.
UV 0 out of 12
Pollen .10 out of 12
Air Quality Not available.
Flu Activity Not available.
METAR KJKL 200753Z AUTO VRB04KT 10SM BKN100 M03/M06 A3019 RMK AO2 SLP234 T10281061

More Conditions Fewer Conditions

10-Day Weather Forecast

Almanac

Astronomy

Dec. 20, 2014 Rise Set
Actual Time
Civil Twilight
Nautical Twilight
Astronomical Twilight
Moon
Length of Visible Light
Length of Day
Tomorrow will be .
, % of the Moon is Illuminated

Today's Extremes

State Highs State Lows

Community

WunderPhotos

Upload Photos

1,779,146 photos uploaded!

WunderBlogs® & News

Nearby

Air Quality

  Air Quality AQ Index Pollutant
Not available.

Snow Depth

Station Depth Elevation

Earthquake Activity

City Distance Mag. Time & Date
Minimum magnitude displayed is 2.5.

Coastal Water Temperatures

Place Temperature

Nearby Weather Stations